Time;durP1;ratioP1;P1;durP2;ratioP2;P2;SDS_P1;SDS_P2;PMS_P1;PMS_P2;Temp;Humidity;BMP_temperature;BMP_pressure;BME280_temperature;BME280_humidity;BME280_pressure;Samples;Min_cycle;Max_cycle;Signal;HPM_P1;HPM_P2
2023/04/20 00:02:30;;;;;;;4.38;2.70;;;;;;;;;;6182538;23;20016;-86
2023/04/20 00:05:15;;;;;;;7.63;3.20;;;;;;;;;;6183409;23;20020;-84
2023/04/20 00:08:00;;;;;;;6.35;2.38;;;;;;;;;;6183226;23;20024;-83
2023/04/20 00:10:45;;;;;;;6.53;2.78;;;;;;;;;;6183830;23;20047;-83
2023/04/20 00:13:29;;;;;;;8.48;3.28;;;;;;;;;;6182732;23;20020;-84
2023/04/20 00:16:14;;;;;;;8.52;3.30;;;;;;;;;;6181798;23;20027;-83
2023/04/20 00:18:59;;;;;;;5.47;2.78;;;;;;;;;;6183047;23;20068;-84
2023/04/20 00:21:44;;;;;;;5.15;2.88;;;;;;;;;;6182580;23;20019;-84
2023/04/20 00:24:28;;;;;;;4.38;2.50;;;;;;;;;;6183070;23;20051;-84
2023/04/20 00:27:13;;;;;;;4.68;2.40;;;;;;;;;;6183109;23;20024;-84
2023/04/20 00:29:57;;;;;;;8.65;2.80;;;;;;;;;;6183379;23;20116;-88
2023/04/20 00:32:42;;;;;;;9.52;2.60;;;;;;;;;;6183618;23;20052;-83
2023/04/20 00:35:26;;;;;;;7.38;2.25;;;;;;;;;;6161464;23;20020;-83
2023/04/20 00:38:11;;;;;;;4.68;1.90;;;;;;;;;;6182873;23;20035;-83
2023/04/20 00:40:55;;;;;;;4.53;2.03;;;;;;;;;;6183637;23;20016;-83
2023/04/20 00:43:49;;;;;;;7.88;2.40;;;;;;;;;;6183540;23;20051;-84
2023/04/20 00:46:34;;;;;;;6.13;2.10;;;;;;;;;;6183461;23;20036;-83
2023/04/20 00:49:18;;;;;;;3.92;1.80;;;;;;;;;;6182731;23;20027;-84
2023/04/20 00:52:03;;;;;;;6.72;1.80;;;;;;;;;;6160540;23;20376;-84
2023/04/20 00:54:48;;;;;;;3.45;1.65;;;;;;;;;;6183609;23;20020;-84
2023/04/20 00:57:32;;;;;;;6.00;2.40;;;;;;;;;;6183550;23;20021;-84
2023/04/20 01:00:17;;;;;;;5.63;1.80;;;;;;;;;;6181574;23;20068;-84
2023/04/20 01:03:02;;;;;;;6.07;1.85;;;;;;;;;;6182961;23;20015;-88
2023/04/20 01:05:47;;;;;;;5.35;1.90;;;;;;;;;;6182020;23;20059;-84
2023/04/20 01:08:31;;;;;;;6.78;1.85;;;;;;;;;;6183473;23;20459;-84
2023/04/20 01:11:16;;;;;;;3.75;1.60;;;;;;;;;;6183829;23;20064;-84
2023/04/20 01:14:00;;;;;;;4.55;1.90;;;;;;;;;;6185427;23;20079;-83
2023/04/20 01:16:46;;;;;;;9.82;1.95;;;;;;;;;;6185562;23;20015;-84
2023/04/20 01:19:31;;;;;;;4.82;1.88;;;;;;;;;;6185435;23;20016;-83
2023/04/20 01:22:17;;;;;;;2.90;1.50;;;;;;;;;;6184692;23;20023;-87
2023/04/20 01:25:01;;;;;;;2.88;1.77;;;;;;;;;;6185338;23;20344;-84
2023/04/20 01:27:47;;;;;;;2.75;1.70;;;;;;;;;;6186486;23;20027;-85
2023/04/20 01:30:32;;;;;;;3.95;1.80;;;;;;;;;;6186787;23;20047;-84
2023/04/20 01:33:16;;;;;;;4.90;2.10;;;;;;;;;;6186154;23;20087;-83
2023/04/20 01:36:01;;;;;;;8.23;2.30;;;;;;;;;;6186449;23;20066;-84
2023/04/20 01:38:45;;;;;;;3.90;2.00;;;;;;;;;;6185460;23;20023;-83
2023/04/20 01:41:30;;;;;;;5.00;1.92;;;;;;;;;;6184827;23;20350;-84
2023/04/20 01:44:14;;;;;;;6.72;2.15;;;;;;;;;;6186071;23;20027;-83
2023/04/20 01:46:59;;;;;;;5.05;2.20;;;;;;;;;;6185353;23;20355;-83
2023/04/20 01:49:44;;;;;;;5.32;2.30;;;;;;;;;;6186060;23;20096;-84
2023/04/20 01:52:29;;;;;;;4.93;2.17;;;;;;;;;;6184660;23;20019;-85
2023/04/20 01:55:13;;;;;;;4.00;2.08;;;;;;;;;;6184746;23;20047;-84
2023/04/20 01:57:58;;;;;;;8.90;2.38;;;;;;;;;;6185297;23;20081;-84
2023/04/20 02:00:43;;;;;;;4.47;2.10;;;;;;;;;;6186520;23;20016;-83
2023/04/20 02:03:28;;;;;;;4.75;2.42;;;;;;;;;;6186045;23;20390;-84
2023/04/20 02:06:12;;;;;;;5.10;2.60;;;;;;;;;;6185778;23;20016;-84
2023/04/20 02:08:57;;;;;;;7.10;2.03;;;;;;;;;;6185243;23;20051;-83
2023/04/20 02:11:41;;;;;;;5.03;2.20;;;;;;;;;;6186282;23;20016;-85
2023/04/20 02:14:26;;;;;;;5.20;2.08;;;;;;;;;;6185991;23;20043;-85
2023/04/20 02:17:11;;;;;;;3.83;1.70;;;;;;;;;;6186169;23;20067;-90
2023/04/20 02:19:55;;;;;;;6.95;2.30;;;;;;;;;;6186299;23;20096;-84
2023/04/20 02:22:40;;;;;;;6.47;2.33;;;;;;;;;;6185543;23;20063;-84
2023/04/20 02:25:24;;;;;;;6.35;2.22;;;;;;;;;;6161764;23;20452;-84
2023/04/20 02:28:09;;;;;;;7.95;3.15;;;;;;;;;;6183342;23;20112;-84
2023/04/20 02:30:53;;;;;;;8.80;2.55;;;;;;;;;;6184836;23;20024;-83
2023/04/20 02:33:38;;;;;;;7.07;2.45;;;;;;;;;;6184411;23;20336;-83
2023/04/20 02:36:22;;;;;;;4.22;1.67;;;;;;;;;;6161907;23;20044;-84
2023/04/20 02:39:07;;;;;;;8.70;1.98;;;;;;;;;;6183630;23;20447;-83
2023/04/20 02:41:51;;;;;;;5.20;2.10;;;;;;;;;;6183380;23;20072;-84
2023/04/20 02:44:36;;;;;;;4.85;2.78;;;;;;;;;;6182897;23;20089;-83
2023/04/20 02:47:20;;;;;;;5.82;2.47;;;;;;;;;;6183769;23;20075;-83
2023/04/20 02:50:06;;;;;;;4.60;1.73;;;;;;;;;;6184778;23;20582;-86
2023/04/20 02:52:50;;;;;;;9.30;2.00;;;;;;;;;;6183422;23;20020;-84
2023/04/20 02:55:35;;;;;;;7.68;2.50;;;;;;;;;;6183878;23;20075;-83
2023/04/20 02:58:19;;;;;;;9.40;2.40;;;;;;;;;;6184080;23;20024;-83
2023/04/20 03:01:04;;;;;;;6.78;1.95;;;;;;;;;;6184186;23;20336;-83
2023/04/20 03:03:49;;;;;;;4.57;2.05;;;;;;;;;;6183186;23;20098;-83
2023/04/20 03:06:35;;;;;;;7.97;2.03;;;;;;;;;;6183891;23;20044;-83
2023/04/20 03:09:20;;;;;;;4.43;1.63;;;;;;;;;;6161998;23;20016;-83
2023/04/20 03:12:05;;;;;;;5.20;2.30;;;;;;;;;;6183330;23;20067;-83
2023/04/20 03:14:50;;;;;;;6.18;2.30;;;;;;;;;;6183608;23;20020;-82
2023/04/20 03:17:34;;;;;;;7.57;2.05;;;;;;;;;;6182512;23;20023;-85
2023/04/20 03:20:19;;;;;;;6.95;2.03;;;;;;;;;;6183936;23;20044;-89
2023/04/20 03:23:04;;;;;;;3.92;1.85;;;;;;;;;;6162173;23;20027;-83
2023/04/20 03:25:48;;;;;;;4.35;2.00;;;;;;;;;;6183163;23;20023;-83
2023/04/20 03:28:33;;;;;;;4.55;2.00;;;;;;;;;;6182451;23;20044;-83
2023/04/20 03:31:17;;;;;;;7.18;1.95;;;;;;;;;;6184148;23;20024;-83
2023/04/20 03:34:02;;;;;;;4.78;1.90;;;;;;;;;;6182964;23;20067;-83
2023/04/20 03:36:46;;;;;;;3.33;1.48;;;;;;;;;;6161820;23;20430;-83
2023/04/20 03:39:31;;;;;;;5.35;2.22;;;;;;;;;;6183841;23;20035;-83
2023/04/20 03:42:15;;;;;;;3.75;1.98;;;;;;;;;;6184121;23;20435;-83
2023/04/20 03:45:00;;;;;;;3.72;1.90;;;;;;;;;;6183799;23;20036;-83
2023/04/20 03:47:44;;;;;;;4.28;2.03;;;;;;;;;;6182207;23;20020;-83
2023/04/20 03:50:29;;;;;;;3.42;1.80;;;;;;;;;;6182073;23;20055;-83
2023/04/20 03:53:14;;;;;;;5.63;2.08;;;;;;;;;;6182870;23;20020;-84
2023/04/20 03:55:58;;;;;;;6.10;1.70;;;;;;;;;;6184051;23;20020;-83
2023/04/20 03:58:43;;;;;;;5.05;1.70;;;;;;;;;;6181707;23;20023;-83
2023/04/20 04:01:27;;;;;;;6.60;2.10;;;;;;;;;;6159606;23;20483;-88
2023/04/20 04:04:12;;;;;;;4.10;1.88;;;;;;;;;;6183589;23;20483;-82
2023/04/20 04:06:57;;;;;;;5.90;2.10;;;;;;;;;;6182568;23;20069;-83
2023/04/20 04:09:41;;;;;;;4.40;1.80;;;;;;;;;;6183226;23;20376;-83
2023/04/20 04:12:26;;;;;;;4.82;2.38;;;;;;;;;;6183859;23;20015;-83
2023/04/20 04:15:11;;;;;;;5.72;2.63;;;;;;;;;;6182579;23;20024;-83
2023/04/20 04:17:55;;;;;;;4.68;1.92;;;;;;;;;;6182520;23;20020;-83
2023/04/20 04:20:40;;;;;;;5.47;1.50;;;;;;;;;;6182095;23;20459;-83
2023/04/20 04:23:25;;;;;;;3.70;1.40;;;;;;;;;;6183828;23;20020;-83
2023/04/20 04:26:10;;;;;;;6.63;1.73;;;;;;;;;;6182473;23;20075;-82
2023/04/20 04:28:55;;;;;;;5.50;1.80;;;;;;;;;;6182115;23;20027;-82
2023/04/20 04:31:39;;;;;;;3.80;1.92;;;;;;;;;;6181759;23;20020;-83
2023/04/20 04:34:28;;;;;;;2.92;1.50;;;;;;;;;;6161491;23;20019;-83
2023/04/20 04:37:13;;;;;;;3.38;1.55;;;;;;;;;;6162666;23;20036;-83
2023/04/20 04:39:58;;;;;;;4.97;2.42;;;;;;;;;;6183517;23;20020;-82
2023/04/20 04:42:44;;;;;;;6.13;2.63;;;;;;;;;;6182819;23;20051;-83
2023/04/20 04:45:29;;;;;;;6.05;1.80;;;;;;;;;;6182215;23;20044;-83
2023/04/20 04:48:13;;;;;;;5.20;2.30;;;;;;;;;;6182188;23;20020;-83
2023/04/20 04:50:58;;;;;;;6.63;1.92;;;;;;;;;;6183593;23;20059;-83
2023/04/20 04:53:45;;;;;;;5.03;2.15;;;;;;;;;;6181522;23;20344;-83
2023/04/20 04:56:29;;;;;;;4.30;2.00;;;;;;;;;;6183352;23;20340;-83
2023/04/20 04:59:14;;;;;;;4.63;2.17;;;;;;;;;;6160765;23;20384;-82
2023/04/20 05:01:58;;;;;;;6.68;2.22;;;;;;;;;;6181582;23;20100;-82
2023/04/20 05:04:43;;;;;;;4.85;2.30;;;;;;;;;;6182663;23;20023;-82
2023/04/20 05:07:28;;;;;;;3.90;2.58;;;;;;;;;;6157857;23;20028;-84
2023/04/20 05:10:12;;;;;;;5.95;2.35;;;;;;;;;;6181184;23;20021;-83
2023/04/20 05:13:00;;;;;;;8.57;2.38;;;;;;;;;;6180618;23;20012;-82
2023/04/20 05:15:44;;;;;;;6.07;1.90;;;;;;;;;;6182384;23;20458;-83
2023/04/20 05:18:29;;;;;;;9.70;2.80;;;;;;;;;;6181899;23;20024;-84
2023/04/20 05:21:13;;;;;;;9.13;2.25;;;;;;;;;;6181780;23;20019;-84
2023/04/20 05:23:58;;;;;;;5.70;2.38;;;;;;;;;;6181027;23;20036;-83
2023/04/20 05:26:43;;;;;;;7.35;2.15;;;;;;;;;;6182409;23;20020;-83
2023/04/20 05:29:27;;;;;;;7.40;2.10;;;;;;;;;;6182138;23;20064;-83
2023/04/20 05:32:12;;;;;;;4.85;2.30;;;;;;;;;;6181869;23;20020;-84
2023/04/20 05:34:57;;;;;;;5.32;2.10;;;;;;;;;;6160205;23;20035;-83
2023/04/20 05:37:41;;;;;;;6.50;2.42;;;;;;;;;;6182579;23;20023;-85
2023/04/20 05:40:26;;;;;;;3.97;2.17;;;;;;;;;;6181753;23;20043;-83
2023/04/20 05:43:10;;;;;;;5.55;2.53;;;;;;;;;;6181621;23;20020;-83
2023/04/20 05:45:55;;;;;;;5.28;1.73;;;;;;;;;;6182544;23;20405;-83
2023/04/20 05:48:39;;;;;;;6.25;2.38;;;;;;;;;;6181732;23;20047;-87
2023/04/20 05:51:27;;;;;;;6.88;2.33;;;;;;;;;;6181897;23;20093;-83
2023/04/20 05:54:13;;;;;;;6.20;2.75;;;;;;;;;;6183201;23;20016;-84
2023/04/20 05:56:57;;;;;;;5.47;2.70;;;;;;;;;;6182352;23;20035;-84
2023/04/20 05:59:42;;;;;;;5.05;2.72;;;;;;;;;;6183141;23;20091;-87
2023/04/20 06:02:27;;;;;;;6.10;3.08;;;;;;;;;;6185017;23;20043;-84
2023/04/20 06:05:11;;;;;;;5.40;2.17;;;;;;;;;;6185182;23;20020;-85
2023/04/20 06:07:56;;;;;;;5.68;2.42;;;;;;;;;;6161975;23;20064;-85
2023/04/20 06:10:40;;;;;;;5.53;2.60;;;;;;;;;;6183597;23;20016;-84
2023/04/20 06:13:25;;;;;;;4.55;2.72;;;;;;;;;;6185039;23;20016;-84
2023/04/20 06:16:09;;;;;;;10.75;2.90;;;;;;;;;;6184822;23;20040;-84
2023/04/20 06:18:54;;;;;;;8.32;3.63;;;;;;;;;;6184412;23;20447;-84
2023/04/20 06:21:39;;;;;;;7.13;3.22;;;;;;;;;;6184970;23;20016;-85
2023/04/20 06:24:23;;;;;;;7.07;2.80;;;;;;;;;;6183393;23;20099;-85
2023/04/20 06:27:11;;;;;;;6.47;3.00;;;;;;;;;;6182999;23;20615;-87
2023/04/20 06:29:55;;;;;;;6.15;2.83;;;;;;;;;;6184440;23;20064;-84
2023/04/20 06:32:40;;;;;;;5.80;2.95;;;;;;;;;;6184850;23;20344;-84
2023/04/20 06:35:25;;;;;;;5.00;2.85;;;;;;;;;;6184951;23;20067;-84
2023/04/20 06:38:09;;;;;;;5.60;2.63;;;;;;;;;;6182832;23;20028;-85
2023/04/20 06:40:56;;;;;;;8.85;3.58;;;;;;;;;;6182937;23;20016;-84
2023/04/20 06:43:41;;;;;;;5.35;2.80;;;;;;;;;;6183511;23;20455;-84
2023/04/20 06:46:26;;;;;;;5.10;2.40;;;;;;;;;;6183788;23;20032;-84
2023/04/20 06:49:10;;;;;;;6.97;3.22;;;;;;;;;;6182851;23;20024;-85
2023/04/20 06:51:55;;;;;;;6.28;2.80;;;;;;;;;;6183525;23;20060;-87
2023/04/20 06:54:39;;;;;;;5.50;2.88;;;;;;;;;;6184566;23;20075;-84
2023/04/20 06:57:24;;;;;;;8.13;3.15;;;;;;;;;;6183562;23;20067;-84
2023/04/20 07:00:10;;;;;;;7.28;3.28;;;;;;;;;;6183880;23;20024;-85
2023/04/20 07:02:55;;;;;;;5.35;3.00;;;;;;;;;;6161705;23;20020;-83
2023/04/20 07:05:39;;;;;;;8.77;3.75;;;;;;;;;;6184473;23;20075;-83
2023/04/20 07:08:27;;;;;;;5.47;3.15;;;;;;;;;;6182588;23;20024;-84
2023/04/20 07:11:12;;;;;;;7.72;2.88;;;;;;;;;;6182429;23;20020;-83
2023/04/20 07:13:56;;;;;;;4.07;2.70;;;;;;;;;;6183366;23;20355;-85
2023/04/20 07:16:41;;;;;;;6.82;3.35;;;;;;;;;;6184434;23;20047;-84
2023/04/20 07:19:25;;;;;;;7.07;3.33;;;;;;;;;;6182932;23;20016;-84
2023/04/20 07:22:10;;;;;;;4.90;2.85;;;;;;;;;;6182289;23;20023;-84
2023/04/20 07:24:54;;;;;;;7.50;2.67;;;;;;;;;;6161290;23;20120;-89
2023/04/20 07:27:40;;;;;;;12.82;3.40;;;;;;;;;;6184405;23;20391;-84
2023/04/20 07:30:25;;;;;;;6.05;3.22;;;;;;;;;;6183864;23;20020;-84
2023/04/20 07:33:10;;;;;;;8.70;3.30;;;;;;;;;;6182137;23;20063;-83
2023/04/20 07:35:54;;;;;;;8.75;3.28;;;;;;;;;;6183952;23;20064;-89
2023/04/20 07:38:39;;;;;;;6.00;3.97;;;;;;;;;;6182707;23;20466;-83
2023/04/20 07:41:23;;;;;;;6.13;3.22;;;;;;;;;;6182804;23;20021;-86
2023/04/20 07:44:08;;;;;;;7.13;3.65;;;;;;;;;;6183457;23;20019;-85
2023/04/20 07:46:53;;;;;;;7.80;3.38;;;;;;;;;;6184013;23;20509;-84
2023/04/20 07:49:39;;;;;;;5.40;3.17;;;;;;;;;;6162150;23;20020;-84
2023/04/20 07:52:24;;;;;;;5.68;3.50;;;;;;;;;;6182625;23;20012;-84
2023/04/20 07:55:16;;;;;;;8.18;4.13;;;;;;;;;;6182146;23;20067;-84
2023/04/20 07:58:00;;;;;;;6.93;3.17;;;;;;;;;;6181913;23;20060;-84
2023/04/20 08:00:46;;;;;;;10.20;4.18;;;;;;;;;;6183409;23;20040;-85
2023/04/20 08:03:32;;;;;;;8.23;3.80;;;;;;;;;;6183351;23;20016;-84
2023/04/20 08:06:16;;;;;;;8.50;4.35;;;;;;;;;;6183261;23;20400;-85
2023/04/20 08:09:02;;;;;;;8.18;3.53;;;;;;;;;;6182827;23;20067;-86
2023/04/20 08:11:48;;;;;;;7.65;3.90;;;;;;;;;;6162022;23;20033;-86
2023/04/20 08:14:32;;;;;;;6.65;3.67;;;;;;;;;;6183616;23;20040;-86
2023/04/20 08:17:17;;;;;;;5.03;3.35;;;;;;;;;;6182009;23;20071;-84
2023/04/20 08:20:02;;;;;;;6.38;3.38;;;;;;;;;;6161321;23;20100;-90
2023/04/20 08:22:48;;;;;;;6.28;3.45;;;;;;;;;;6185402;23;20016;-83
2023/04/20 08:25:33;;;;;;;7.72;4.10;;;;;;;;;;6182405;23;20028;-85
2023/04/20 08:28:17;;;;;;;7.00;3.00;;;;;;;;;;6181719;23;20024;-84
2023/04/20 08:31:01;;;;;;;8.30;3.70;;;;;;;;;;6182423;23;20020;-89
2023/04/20 08:33:46;;;;;;;9.82;3.10;;;;;;;;;;6183723;23;20016;-84
2023/04/20 08:36:31;;;;;;;7.88;3.38;;;;;;;;;;6161478;23;20019;-85
2023/04/20 08:39:18;;;;;;;6.88;4.03;;;;;;;;;;6183119;23;20020;-84
2023/04/20 08:42:03;;;;;;;5.15;3.35;;;;;;;;;;6183273;23;20344;-91
2023/04/20 08:44:48;;;;;;;7.90;3.85;;;;;;;;;;6183696;23;20021;-86
2023/04/20 08:47:33;;;;;;;7.30;3.08;;;;;;;;;;6183500;23;20028;-84
2023/04/20 08:50:19;;;;;;;9.60;3.67;;;;;;;;;;6181770;23;20336;-85
2023/04/20 08:53:04;;;;;;;9.25;3.47;;;;;;;;;;6182579;23;20012;-84
2023/04/20 08:55:49;;;;;;;4.13;2.60;;;;;;;;;;6182364;23;20032;-84
2023/04/20 08:58:34;;;;;;;7.50;3.85;;;;;;;;;;6183503;23;20016;-84
2023/04/20 09:01:26;;;;;;;8.25;3.42;;;;;;;;;;6182910;23;20016;-85
2023/04/20 09:04:20;;;;;;;8.30;3.75;;;;;;;;;;6182697;23;20028;-85
2023/04/20 09:07:17;;;;;;;10.88;3.55;;;;;;;;;;6182225;23;20020;-86
2023/04/20 09:10:01;;;;;;;12.60;4.22;;;;;;;;;;6186682;23;20032;-84
2023/04/20 09:12:46;;;;;;;8.98;3.75;;;;;;;;;;6182934;23;20021;-84
2023/04/20 09:15:31;;;;;;;6.40;3.13;;;;;;;;;;6182911;23;20045;-84
2023/04/20 09:18:16;;;;;;;6.47;3.53;;;;;;;;;;6181961;23;20067;-87
2023/04/20 09:21:08;;;;;;;10.10;4.13;;;;;;;;;;6181778;23;20023;-85
2023/04/20 09:24:00;;;;;;;6.05;3.33;;;;;;;;;;6182855;23;20343;-88
2023/04/20 09:26:44;;;;;;;7.82;4.43;;;;;;;;;;6181921;23;20527;-84
2023/04/20 09:29:29;;;;;;;7.57;4.30;;;;;;;;;;6181600;23;20506;-86
2023/04/20 09:32:23;;;;;;;9.48;4.65;;;;;;;;;;6160257;23;20391;-83
2023/04/20 09:35:08;;;;;;;8.10;4.85;;;;;;;;;;6183968;23;20016;-84
2023/04/20 09:37:53;;;;;;;9.52;4.32;;;;;;;;;;6183944;23;20086;-85
2023/04/20 09:40:38;;;;;;;7.40;4.45;;;;;;;;;;6184939;23;20032;-84
2023/04/20 09:43:24;;;;;;;8.23;4.45;;;;;;;;;;6183383;23;20016;-83
2023/04/20 09:46:12;;;;;;;9.38;5.20;;;;;;;;;;6183654;23;20062;-85
2023/04/20 09:48:57;;;;;;;6.53;4.47;;;;;;;;;;6184682;23;20020;-83
2023/04/20 09:51:45;;;;;;;6.35;4.13;;;;;;;;;;6162459;23;20020;-83
2023/04/20 09:54:31;;;;;;;8.57;5.35;;;;;;;;;;6184612;23;20072;-85
2023/04/20 09:57:15;;;;;;;13.68;4.80;;;;;;;;;;6184420;23;20040;-88
2023/04/20 10:00:01;;;;;;;9.43;4.90;;;;;;;;;;6183724;23;20015;-84
2023/04/20 10:02:47;;;;;;;11.60;5.55;;;;;;;;;;6184842;23;20064;-84
2023/04/20 10:05:32;;;;;;;13.75;4.95;;;;;;;;;;6184330;23;20060;-84
2023/04/20 10:08:17;;;;;;;11.68;5.50;;;;;;;;;;6182965;23;20081;-89
2023/04/20 10:11:02;;;;;;;9.40;5.10;;;;;;;;;;6178569;23;20176;-84
2023/04/20 10:13:46;;;;;;;8.55;3.58;;;;;;;;;;6157855;23;20031;-84
2023/04/20 10:16:31;;;;;;;9.13;4.88;;;;;;;;;;6182037;23;20016;-84
2023/04/20 10:19:16;;;;;;;10.05;5.20;;;;;;;;;;6181105;23;20016;-84
2023/04/20 10:22:01;;;;;;;12.02;5.03;;;;;;;;;;6182711;23;20097;-84
2023/04/20 10:24:46;;;;;;;8.93;4.90;;;;;;;;;;6182652;23;20071;-84
2023/04/20 10:27:31;;;;;;;9.32;5.97;;;;;;;;;;6182179;23;20459;-84
2023/04/20 10:30:16;;;;;;;10.35;5.20;;;;;;;;;;6181697;23;20019;-86
2023/04/20 10:33:04;;;;;;;8.30;4.65;;;;;;;;;;6182425;23;20344;-84
2023/04/20 10:35:49;;;;;;;8.00;4.85;;;;;;;;;;6182418;23;20016;-86
2023/04/20 10:38:35;;;;;;;11.38;4.97;;;;;;;;;;6180793;23;20051;-86
2023/04/20 10:41:20;;;;;;;11.60;5.60;;;;;;;;;;6181259;23;20475;-88
2023/04/20 10:44:08;;;;;;;7.78;4.28;;;;;;;;;;6182550;23;20060;-86
2023/04/20 10:46:53;;;;;;;6.70;4.70;;;;;;;;;;6180583;23;20020;-85
2023/04/20 10:49:38;;;;;;;8.60;4.38;;;;;;;;;;6182147;23;20020;-83
2023/04/20 10:52:36;;;;;;;12.57;4.43;;;;;;;;;;6182127;23;20012;-85
2023/04/20 10:55:21;;;;;;;7.13;4.68;;;;;;;;;;6181811;23;20407;-89
2023/04/20 10:58:06;;;;;;;7.70;5.10;;;;;;;;;;6183287;23;20536;-83
2023/04/20 11:01:01;;;;;;;7.32;5.00;;;;;;;;;;6182800;23;20415;-84
2023/04/20 11:03:50;;;;;;;8.63;4.63;;;8.40;99.90;;;;;;6181755;23;20059;-86
2023/04/20 11:06:36;;;;;;;6.88;4.97;;;;;;;;;;6181900;23;20356;-84
2023/04/20 11:09:25;;;;;;;10.38;5.15;;;;;;;;;;6180002;23;20459;-88
2023/04/20 11:12:14;;;;;;;8.55;4.32;;;;;;;;;;6182389;23;20023;-84
2023/04/20 11:15:01;;;;;;;11.45;5.00;;;;;;;;;;6182568;23;20440;-83
2023/04/20 11:17:46;;;;;;;8.05;4.85;;;;;;;;;;6181774;23;20024;-83
2023/04/20 11:20:30;;;;;;;8.13;4.40;;;;;;;;;;6181931;23;20016;-86
2023/04/20 11:23:15;;;;;;;7.95;5.53;;;;;;;;;;6160067;23;20031;-85
2023/04/20 11:26:00;;;;;;;9.25;4.95;;;;;;;;;;6180791;23;20028;-84
2023/04/20 11:28:51;;;;;;;8.13;5.45;;;;;;;;;;6159089;23;20234;-84
2023/04/20 11:31:36;;;;;;;9.43;5.90;;;;;;;;;;6184551;23;20396;-83
2023/04/20 11:34:21;;;;;;;11.57;5.05;;;;;;;;;;6184108;23;20017;-83
2023/04/20 11:37:06;;;;;;;11.23;5.97;;;;;;;;;;6161904;23;20092;-87
2023/04/20 11:40:01;;;;;;;13.68;6.75;;;;;;;;;;6182763;23;20059;-86
2023/04/20 11:42:45;;;;;;;;;;;9.40;99.90;;;;;;6180749;23;20071;-83
2023/04/20 11:45:32;;;;;;;12.23;6.65;;;;;;;;;;6160526;23;20342;-85
2023/04/20 11:48:17;;;;;;;10.68;6.60;;;;;;;;;;6183741;23;20024;-83
2023/04/20 11:51:02;;;;;;;11.43;6.30;;;;;;;;;;6181181;23;20027;-83
2023/04/20 11:53:47;;;;;;;11.52;6.28;;;;;;;;;;6180603;23;20019;-82
2023/04/20 11:56:32;;;;;;;11.18;5.97;;;;;;;;;;6180825;23;20020;-84
2023/04/20 11:59:18;;;;;;;8.90;5.05;;;;;;;;;;6170376;23;20196;-83
2023/04/20 12:02:04;;;;;;;11.57;6.10;;;;;;;;;;6169729;23;20475;-85
2023/04/20 12:04:49;;;;;;;10.95;4.95;;;;;;;;;;6147360;23;20099;-82
2023/04/20 12:07:34;;;;;;;14.93;6.30;;;;;;;;;;6166778;23;20096;-81
2023/04/20 12:10:19;;;;;;;14.02;7.43;;;;;;;;;;6146324;23;20529;-80
2023/04/20 12:13:03;;;;;;;10.07;5.35;;;;;;;;;;6167932;23;20064;-83
2023/04/20 12:15:48;;;;;;;12.40;6.88;;;;;;;;;;6169187;23;20087;-82
2023/04/20 12:18:33;;;;;;;9.75;5.97;;;;;;;;;;6169687;23;20359;-84
2023/04/20 12:21:17;;;;;;;12.48;7.38;;;;;;;;;;6167220;23;20043;-84
2023/04/20 12:24:02;;;;;;;14.38;6.53;;;;;;;;;;6167658;23;20067;-82
2023/04/20 12:26:47;;;;;;;10.57;6.18;;;;;;;;;;6166662;23;20079;-83
2023/04/20 12:29:32;;;;;;;11.18;7.03;;;;;;;;;;6167504;23;20044;-86
2023/04/20 12:32:17;;;;;;;11.88;6.93;;;;;;;;;;6169117;23;20024;-82
2023/04/20 12:35:02;;;;;;;10.07;6.20;;;;;;;;;;6179055;23;20071;-83
2023/04/20 12:37:46;;;;;;;13.00;7.05;;;;;;;;;;6178978;23;20053;-83
2023/04/20 12:40:31;;;;;;;12.48;7.55;;;;;;;;;;6180629;23;20019;-88
2023/04/20 12:43:15;;;;;;;13.70;7.18;;;;;;;;;;6179497;23;20443;-82
2023/04/20 12:46:00;;;;;;;12.32;6.65;;;;;;;;;;6180650;23;20488;-82
2023/04/20 12:48:45;;;;;;;13.07;6.30;;;;;;;;;;6180358;23;20343;-86
2023/04/20 12:51:30;;;;;;;12.90;6.38;;;;;;;;;;6181458;23;20023;-82
2023/04/20 12:54:15;;;;;;;10.43;6.18;;;;;;;;;;6158401;23;20036;-83
2023/04/20 12:57:01;;;;;;;12.45;7.00;;;;;;;;;;6180831;23;20451;-82
2023/04/20 12:59:49;;;;;;;11.52;6.88;;;;;;;;;;6179801;23;20085;-83
2023/04/20 13:02:34;;;;;;;11.05;6.72;;;;;;;;;;6178034;23;20015;-86
2023/04/20 13:05:19;;;;;;;10.15;6.30;;;;;;;;;;6178512;23;20020;-83
2023/04/20 13:08:03;;;;;;;8.13;5.72;;;;;;;;;;6180134;23;20159;-84
2023/04/20 13:10:48;;;;;;;11.38;5.75;;;;;;;;;;6179930;23;20023;-85
2023/04/20 13:13:33;;;;;;;9.80;7.22;;;;;;;;;;6179060;23;20086;-83
2023/04/20 13:16:17;;;;;;;11.23;6.70;;;;;;;;;;6157305;23;20016;-84
2023/04/20 13:19:02;;;;;;;11.65;6.20;;;;;;;;;;6179303;23;20051;-82
2023/04/20 13:21:47;;;;;;;9.13;6.10;;;;;;;;;;6179756;23;20018;-83
2023/04/20 13:24:31;;;;;;;8.55;5.65;;;;;;;;;;6175027;23;20032;-83
2023/04/20 13:27:16;;;;;;;8.25;5.65;;;;;;;;;;6178425;23;20088;-85
2023/04/20 13:30:03;;;;;;;10.40;6.10;;;;;;;;;;6177709;23;20335;-83
2023/04/20 13:32:48;;;;;;;9.48;6.18;;;;;;;;;;6178209;23;20351;-84
2023/04/20 13:35:33;;;;;;;11.27;7.10;;;;;;;;;;6178321;23;20067;-83
2023/04/20 13:38:18;;;;;;;11.38;6.43;;;;;;;;;;6178428;23;20023;-84
2023/04/20 13:41:02;;;;;;;10.68;6.50;;;;;;;;;;6179188;23;20015;-83
2023/04/20 13:43:47;;;;;;;7.07;5.75;;;;;;;;;;6179262;23;20016;-84
2023/04/20 13:46:31;;;;;;;8.63;6.55;;;;;;;;;;6181085;23;20447;-83
2023/04/20 13:49:16;;;;;;;9.52;5.72;;;;;;;;;;6158282;23;20028;-83
2023/04/20 13:52:03;;;;;;;11.27;6.38;;;;;;;;;;6180697;23;20021;-86
2023/04/20 13:54:48;;;;;;;9.70;5.82;;;;;;;;;;6179396;23;20017;-84
2023/04/20 13:57:32;;;;;;;8.77;6.35;;;;;;;;;;6179948;23;20336;-84
2023/04/20 14:00:19;;;;;;;10.15;6.30;;;;;;;;;;6179812;23;20015;-83
2023/04/20 14:03:04;;;;;;;8.25;6.75;;;;;;;;;;6179296;23;20020;-85
2023/04/20 14:05:49;;;;;;;8.32;5.78;;;;;;;;;;6181018;23;20052;-84
2023/04/20 14:08:37;;;;;;;9.85;6.40;;;;;;;;;;6179677;23;20075;-83
2023/04/20 14:11:22;;;;;;;12.82;6.90;;;;;;;;;;6179516;23;20012;-84
2023/04/20 14:14:09;;;;;;;9.65;6.07;;;;;;;;;;6158925;23;20035;-85
2023/04/20 14:16:53;;;;;;;9.25;6.22;;;;;;;;;;6180737;23;20016;-86
2023/04/20 14:19:38;;;;;;;12.38;6.00;;;;;;;;;;6180086;23;20448;-84
2023/04/20 14:22:23;;;;;;;9.32;6.32;;;;;;;;;;6182870;23;20016;-84
2023/04/20 14:25:07;;;;;;;8.95;6.55;;;;;;;;;;6180857;23;20116;-83
2023/04/20 14:27:52;;;;;;;9.18;6.15;;;;;;;;;;6181267;23;20436;-84
2023/04/20 14:30:36;;;;;;;11.40;6.10;;;;;;;;;;6182698;23;20052;-83
2023/04/20 14:33:21;;;;;;;9.75;6.00;;;;;;;;;;6182471;23;20017;-83
2023/04/20 14:36:05;;;;;;;8.48;5.65;;;;;;;;;;6180974;23;20039;-83
2023/04/20 14:38:50;;;;;;;8.23;6.07;;;;;;;;;;6159544;23;20099;-84
2023/04/20 14:41:35;;;;;;;9.18;6.15;;;;;;;;;;6183501;23;20060;-83
2023/04/20 14:44:20;;;;;;;8.88;6.03;;;;;;;;;;6184068;23;20395;-83
2023/04/20 14:47:04;;;;;;;10.05;6.13;;;;;;;;;;6182510;23;20064;-84
2023/04/20 14:49:49;;;;;;;10.30;6.55;;;;;;;;;;6181183;23;20032;-86
2023/04/20 14:52:33;;;;;;;9.70;6.80;;;;;;;;;;6181865;23;20096;-85
2023/04/20 14:55:23;;;;;;;9.55;6.10;;;;;;;;;;6183020;23;20099;-85
2023/04/20 14:58:08;;;;;;;8.80;5.97;;;;;;;;;;6181377;23;20043;-83
2023/04/20 15:00:53;;;;;;;7.90;5.85;;;;;;;;;;6182314;23;20012;-83
2023/04/20 15:03:38;;;;;;;9.98;6.07;;;;;;;;;;6184467;23;20059;-83
2023/04/20 15:06:23;;;;;;;8.60;6.45;;;;;;;;;;6182904;23;20387;-83
2023/04/20 15:09:07;;;;;;;9.25;6.10;;;;;;;;;;6183180;23;20113;-84
2023/04/20 15:11:52;;;;;;;9.43;6.25;;;;;;;;;;6182515;23;20020;-88
2023/04/20 15:14:36;;;;;;;9.25;6.40;;;;;;;;;;6161992;23;20341;-83
2023/04/20 15:17:20;;;;;;;8.38;5.45;;;;;;;;;;6181717;23;20072;-86
2023/04/20 15:20:06;;;;;;;12.13;6.80;;;;;;;;;;6183870;23;20455;-85
2023/04/20 15:22:51;;;;;;;8.95;6.30;;;;;;;;;;6184325;23;20063;-89
2023/04/20 15:25:35;;;;;;;10.63;7.47;;;;;;;;;;6184301;23;20024;-84
2023/04/20 15:28:20;;;;;;;8.75;5.95;;;;;;;;;;6182294;23;20063;-85
2023/04/20 15:31:06;;;;;;;8.27;5.53;;;;;;;;;;6181949;23;20071;-83
2023/04/20 15:33:51;;;;;;;9.40;6.78;;;;;;;;;;6182610;23;20025;-83
2023/04/20 15:36:36;;;;;;;9.13;6.10;;;;;;;;;;6182956;23;20024;-82
2023/04/20 15:39:20;;;;;;;9.07;5.35;;;;;;;;;;6184152;23;20068;-84
2023/04/20 15:42:05;;;;;;;10.32;6.30;;;;;;;;;;6183255;23;20012;-84
2023/04/20 15:44:50;;;;;;;8.65;5.75;;;;;;;;;;6182779;23;20111;-83
2023/04/20 15:47:34;;;;;;;9.20;5.50;;;;;;;;;;6183886;23;20095;-83
2023/04/20 15:50:19;;;;;;;10.73;6.25;;;;;;;;;;6182206;23;20020;-84
2023/04/20 15:53:04;;;;;;;9.68;5.68;;;;;;;;;;6161384;23;20455;-83
2023/04/20 15:55:48;;;;;;;11.48;6.22;;;;;;;;;;6182809;23;20016;-84
2023/04/20 15:58:33;;;;;;;9.73;6.53;;;;;;;;;;6182777;23;20019;-84
2023/04/20 16:01:18;;;;;;;9.18;6.18;;;;;;;;;;6183599;23;20040;-83
2023/04/20 16:04:03;;;;;;;9.05;6.47;;;;;;;;;;6182000;23;20020;-84
2023/04/20 16:06:47;;;;;;;8.85;6.05;;;;;;;;;;6184083;23;20451;-85
2023/04/20 16:09:32;;;;;;;11.85;6.50;;;;;;;;;;6184237;23;20476;-85
2023/04/20 16:12:16;;;;;;;8.35;6.10;;;;;;;;;;6182595;23;20016;-84
2023/04/20 16:15:02;;;;;;;9.35;6.05;;;;;;;;;;6185715;23;20071;-84
2023/04/20 16:17:47;;;;;;;7.90;5.80;;;;;;;;;;6183369;23;20024;-84
2023/04/20 16:20:32;;;;;;;8.35;5.47;;;;;;;;;;6182847;23;20059;-84
2023/04/20 16:23:16;;;;;;;8.80;5.88;;;;;;;;;;6182175;23;20015;-84
2023/04/20 16:26:01;;;;;;;8.00;5.45;;;;;;;;;;6183701;23;20027;-90
2023/04/20 16:28:45;;;;;;;12.02;6.18;;;;;;;;;;6161845;23;20444;-84